Airfield :
LOGIN :

Register | Disclaimer

   EN    FR    IT 

 










Legend :    VFR   Marginal VFR   IFR   Intensive IFR   Very Intensive IFR
Visi :
Ceiling :
>= 8 km
>= 3000ft
5 to 8 km
1000 to 3000 ft
1500m to 5 km
500 to 1000 ft
800 to 1500m
200 to 500 ft
< 800m
< 200 ft
Symbols :   Thunderstorms  Fog  Heavy snow  Heavy precipitations  Wind > 20 kt
SIGMETs :     Misc.  Thunderstorms  Icing  Turbulence  Mountain Waves  Volcanic Ashes






- Airport Elevation : 1000 ft
- IATA code : PEV


LHPP - Pécs Pogany

CURRENT METAR :
  • 281045Z AUTO 12007KT 080V150 4200 BR OVC003 02/01 Q1022

EXPIRED METARs :
  • 281015Z AUTO 12007KT 100V160 3700 BR OVC003 02/01 Q1022
  • 281009Z AUTO 11008KT 070V150 3600 BR OVC003 02/01 Q1023
  • 280951Z AUTO 11007KT 080V150 2400 BR OVC003 02/01 Q1023
  • 280928Z AUTO 11007KT 3400 BR OVC003 02/01 Q1023
  • 280915Z AUTO 11006KT 2800 BR OVC003 02/01 Q1023
  • 280857Z AUTO 10006KT 2800 BR OVC003 02/01 Q1023
  • 280845Z AUTO 10005KT 080V140 3100 BR OVC004 02/01 Q1023
  • 280829Z AUTO 13004KT 060V160 2700 BR OVC004 02/01 Q1023
  • 280815Z AUTO 15005KT 3500 BR OVC004 02/01 Q1023

TAF AMD TAF LHPP
Valid from the 28 at 10:00 until the 28 at 18:00 UTC


281000Z 2810/2818 12006KT 5000 BR OVC006
TEMPO 2810/2812 2500 OVC003
BECMG 2811/2814 8000 NSW OVC012
BECMG 2813/2816 BKN018



MET'MAP, your aeronautical weather chart ! - Copyright ORBIFLY December 2007 - Disclaimer

ORBIFLY MET'MAP TEAM :

Programming & Development : Alexandra Zaïnal
Original concept : Baudouin d'Aumeries
Technical & hardware support : Manuel Goepfert
Assistance : Marc-Olivier Méhu




SOURCES & CREDITS :

   NOAA